createdAt,value
2018-07-12T00:00:55.254Z,94.61
2018-07-12T00:03:23.207Z,94.75
2018-07-12T00:05:51.260Z,94.26
2018-07-12T00:08:19.203Z,94.85
2018-07-12T00:10:47.137Z,94.59
2018-07-12T00:13:15.063Z,94.59
2018-07-12T00:15:42.981Z,94.85
2018-07-12T00:18:10.957Z,94.52
2018-07-12T00:20:38.871Z,94.75
2018-07-12T00:23:07.648Z,94.45
2018-07-12T00:25:35.564Z,94.67
2018-07-12T00:28:03.499Z,95.00
2018-07-12T00:30:31.444Z,95.08
2018-07-12T00:32:59.366Z,94.87
2018-07-12T00:35:27.314Z,94.30
2018-07-12T00:37:55.234Z,94.47
2018-07-12T00:40:23.123Z,94.20
2018-07-12T00:42:51.044Z,94.53
2018-07-12T00:45:18.969Z,93.91
2018-07-12T00:47:57.476Z,94.23
2018-07-12T00:50:31.335Z,94.54
2018-07-12T00:52:59.706Z,94.10
2018-07-12T00:55:27.663Z,94.06
2018-07-12T00:57:55.550Z,94.78
2018-07-12T01:00:23.484Z,94.65
2018-07-12T01:02:51.416Z,94.52
2018-07-12T01:05:19.306Z,94.30
2018-07-12T01:07:47.232Z,94.19
2018-07-12T01:10:15.151Z,94.77
2018-07-12T01:12:43.078Z,94.27
2018-07-12T01:15:10.974Z,94.63
2018-07-12T01:17:38.877Z,94.14
2018-07-12T01:20:06.799Z,94.08
2018-07-12T01:22:34.708Z,94.16
2018-07-12T01:25:02.636Z,93.73
2018-07-12T01:27:30.642Z,93.32
2018-07-12T01:29:58.545Z,93.49
2018-07-12T01:32:26.453Z,93.78
2018-07-12T01:34:54.379Z,93.78
2018-07-12T01:37:31.963Z,93.58
2018-07-12T01:40:01.303Z,93.79
2018-07-12T01:42:29.247Z,94.08
2018-07-12T01:44:57.131Z,93.36
2018-07-12T01:47:25.068Z,93.98
2018-07-12T01:49:52.986Z,93.83
2018-07-12T01:52:20.915Z,93.73
2018-07-12T01:54:48.874Z,93.71
2018-07-12T01:57:16.801Z,94.00
2018-07-12T01:59:44.740Z,93.93
2018-07-12T02:02:12.659Z,94.24
2018-07-12T02:04:40.598Z,93.83
2018-07-12T02:07:08.496Z,94.03
2018-07-12T02:09:36.406Z,93.80
2018-07-12T02:12:04.310Z,94.10
2018-07-12T02:14:32.247Z,93.66
2018-07-12T02:17:00.198Z,93.43
2018-07-12T02:19:28.171Z,93.72
2018-07-12T02:21:56.115Z,93.63
2018-07-12T02:24:24.008Z,93.22
2018-07-12T02:26:51.950Z,93.36
2018-07-12T02:29:19.859Z,92.84
2018-07-12T02:31:47.801Z,93.16
2018-07-12T02:34:15.737Z,93.37
2018-07-12T02:36:43.658Z,93.50
2018-07-12T02:39:11.613Z,93.25
2018-07-12T02:41:39.542Z,92.62
2018-07-12T02:44:07.453Z,93.51
2018-07-12T02:46:35.398Z,93.29
2018-07-12T02:49:03.295Z,93.35
2018-07-12T02:51:31.260Z,92.37
2018-07-12T02:53:59.200Z,92.87
2018-07-12T02:56:27.113Z,92.91
2018-07-12T02:58:55.060Z,92.69
2018-07-12T03:01:22.985Z,93.16
2018-07-12T03:03:50.910Z,93.94
2018-07-12T03:06:18.870Z,94.08
2018-07-12T03:08:46.812Z,94.68
2018-07-12T03:11:14.734Z,94.32
2018-07-12T03:13:42.673Z,94.08
2018-07-12T03:16:10.574Z,93.27
2018-07-12T03:18:38.518Z,93.20
2018-07-12T03:21:06.428Z,93.17
2018-07-12T03:23:34.351Z,93.97
2018-07-12T03:26:02.390Z,93.85
2018-07-12T03:28:30.302Z,93.32
2018-07-12T03:30:58.239Z,93.91
2018-07-12T03:33:26.164Z,93.83
2018-07-12T03:35:54.094Z,93.59
2018-07-12T03:38:22.017Z,94.14
2018-07-12T03:40:49.955Z,94.89
2018-07-12T03:43:17.871Z,95.16
2018-07-12T03:45:45.884Z,94.71
2018-07-12T03:48:13.798Z,95.01
2018-07-12T03:50:41.737Z,95.44
2018-07-12T03:53:09.637Z,95.82
2018-07-12T03:55:37.550Z,96.19
2018-07-12T03:58:05.581Z,95.64
2018-07-12T04:00:33.713Z,96.10
2018-07-12T04:03:01.599Z,96.31
2018-07-12T04:05:29.529Z,95.57
2018-07-12T04:07:57.445Z,95.99
2018-07-12T04:10:25.373Z,96.04
2018-07-12T04:12:53.309Z,95.96
2018-07-12T04:15:21.281Z,96.30
2018-07-12T04:17:49.204Z,96.50
2018-07-12T04:20:17.124Z,96.60
2018-07-12T04:22:45.065Z,96.53
2018-07-12T04:25:12.988Z,96.07
2018-07-12T04:27:40.948Z,96.28
2018-07-12T04:30:08.841Z,96.58
2018-07-12T04:32:36.784Z,95.99
2018-07-12T04:35:04.814Z,96.38
2018-07-12T04:37:32.734Z,96.21
2018-07-12T04:40:00.683Z,96.58
2018-07-12T04:42:28.636Z,96.33
2018-07-12T04:44:56.530Z,95.75
2018-07-12T04:47:26.446Z,95.78
2018-07-12T04:50:00.859Z,95.56
2018-07-12T05:12:05.875Z,95.29
2018-07-12T05:14:36.091Z,95.03
2018-07-12T05:17:09.891Z,94.83
2018-07-12T05:19:39.946Z,95.10
2018-07-12T05:22:11.072Z,94.29
2018-07-12T05:24:45.913Z,94.40
2018-07-12T05:27:15.798Z,94.68
2018-07-12T05:29:50.664Z,94.72
2018-07-12T05:32:20.124Z,94.47
2018-07-12T05:34:52.308Z,94.33
2018-07-12T05:37:26.923Z,93.84
2018-07-12T05:40:01.117Z,93.12
2018-07-12T05:42:34.258Z,93.72
2018-07-12T05:45:07.492Z,93.50
2018-07-12T05:47:40.837Z,92.88
2018-07-12T05:50:16.624Z,92.51
2018-07-12T05:52:50.210Z,92.33
2018-07-12T05:55:25.782Z,92.47
2018-07-12T05:58:02.110Z,91.34
2018-07-12T06:00:31.471Z,91.32
2018-07-12T06:03:00.589Z,90.78
2018-07-12T06:05:30.531Z,90.80
2018-07-12T06:07:59.629Z,91.10
2018-07-12T06:10:28.822Z,90.86
2018-07-12T06:13:00.196Z,90.29
2018-07-12T06:15:35.951Z,90.50
2018-07-12T06:18:12.905Z,89.83
2018-07-12T06:20:47.857Z,89.11
2018-07-12T06:23:23.642Z,88.97
2018-07-12T06:26:08.775Z,89.57
2018-07-12T06:28:44.250Z,89.77
2018-07-12T06:31:18.880Z,89.82
2018-07-12T06:33:54.661Z,89.20
2018-07-12T06:36:26.902Z,88.99
2018-07-12T06:39:05.782Z,88.91
2018-07-12T06:41:41.268Z,88.91
2018-07-12T06:44:20.699Z,88.95
2018-07-12T06:46:54.398Z,88.71
2018-07-12T06:49:28.668Z,88.60
2018-07-12T06:52:07.163Z,88.27
2018-07-12T06:54:41.401Z,88.00
2018-07-12T06:57:15.615Z,87.99
2018-07-12T06:59:51.227Z,86.83
2018-07-12T07:02:25.410Z,86.54
2018-07-12T07:05:00.012Z,86.97
2018-07-12T07:07:32.786Z,87.03
2018-07-12T07:10:08.019Z,85.80
2018-07-12T07:12:43.272Z,85.28
2018-07-12T07:15:15.317Z,84.70
2018-07-12T07:17:49.945Z,83.90
2018-07-12T07:20:26.514Z,82.92
2018-07-12T07:23:02.253Z,82.56
2018-07-12T07:25:40.588Z,81.81
2018-07-12T07:28:19.551Z,82.04
2018-07-12T07:30:53.333Z,82.18
2018-07-12T07:33:26.662Z,81.74
2018-07-12T07:36:05.025Z,81.97
2018-07-12T07:38:41.968Z,83.10
2018-07-12T07:41:15.278Z,83.39
2018-07-12T07:43:54.233Z,82.98
2018-07-12T07:46:31.200Z,82.83
2018-07-12T07:49:09.425Z,82.91
2018-07-12T07:51:46.405Z,82.30
2018-07-12T07:54:21.333Z,82.29
2018-07-12T07:56:57.915Z,82.36
2018-07-12T07:59:34.083Z,82.18
2018-07-12T08:02:09.683Z,81.16
2018-07-12T08:04:46.104Z,81.27
2018-07-12T08:07:22.288Z,80.60
2018-07-12T08:09:57.882Z,80.94
2018-07-12T08:12:32.695Z,78.86
2018-07-12T08:15:07.283Z,78.31
2018-07-12T08:17:42.454Z,76.96
2018-07-12T08:20:17.429Z,77.26
2018-07-12T08:22:50.762Z,76.52
2018-07-12T08:25:22.411Z,76.19
2018-07-12T08:28:07.262Z,75.66
2018-07-12T08:30:41.594Z,74.78
2018-07-12T08:33:16.768Z,73.94
2018-07-12T08:35:52.050Z,73.99
2018-07-12T08:38:25.838Z,74.40
2018-07-12T08:41:00.121Z,74.56
2018-07-12T08:43:36.978Z,74.35
2018-07-12T08:46:11.057Z,74.24
2018-07-12T08:48:44.408Z,72.79
2018-07-12T08:51:16.957Z,73.21
2018-07-12T08:53:53.811Z,72.56
2018-07-12T08:56:28.469Z,72.46
2018-07-12T08:59:05.002Z,72.78
2018-07-12T09:01:41.762Z,72.44
2018-07-12T09:04:17.492Z,72.58
2018-07-12T09:06:51.375Z,72.46
2018-07-12T09:09:27.581Z,73.26
2018-07-12T09:12:02.508Z,73.42
2018-07-12T09:14:35.869Z,71.82
2018-07-12T09:17:09.373Z,71.62
2018-07-12T09:19:51.495Z,71.19
2018-07-12T09:22:24.269Z,71.75
2018-07-12T09:24:58.307Z,72.78
2018-07-12T09:27:30.744Z,72.33
2018-07-12T09:30:05.060Z,71.73
2018-07-12T09:32:41.033Z,70.50
2018-07-12T09:35:16.888Z,69.89
2018-07-12T09:37:51.543Z,69.68
2018-07-12T09:40:27.849Z,68.64
2018-07-12T09:43:02.380Z,69.53
2018-07-12T09:45:36.521Z,69.02
2018-07-12T09:48:09.590Z,68.28
2018-07-12T09:50:42.806Z,67.86
2018-07-12T09:53:19.425Z,67.09
2018-07-12T09:55:55.742Z,67.71
2018-07-12T09:58:31.897Z,67.83
2018-07-12T10:01:09.081Z,67.11
2018-07-12T10:03:46.640Z,67.45
2018-07-12T10:06:25.616Z,67.02
2018-07-12T10:09:06.724Z,67.14
2018-07-12T10:11:48.503Z,66.59
2018-07-12T10:14:30.577Z,66.21
2018-07-12T10:17:07.083Z,65.90
2018-07-12T10:19:42.190Z,65.93
2018-07-12T10:22:29.185Z,65.01
2018-07-12T10:25:06.878Z,64.14
2018-07-12T10:27:39.643Z,64.09
2018-07-12T10:30:13.915Z,63.84
2018-07-12T10:32:50.346Z,64.27
2018-07-12T10:35:23.880Z,63.76
2018-07-12T10:37:57.022Z,63.10
2018-07-12T10:40:32.126Z,62.52
2018-07-12T10:43:10.523Z,62.52
2018-07-12T10:45:46.552Z,61.80
2018-07-12T10:48:20.652Z,61.83
2018-07-12T10:51:02.122Z,61.41
2018-07-12T10:53:36.328Z,61.51
2018-07-12T10:56:10.874Z,61.86
2018-07-12T10:58:45.645Z,61.78
2018-07-12T11:01:20.798Z,60.89
2018-07-12T11:03:55.565Z,60.95
2018-07-12T11:06:30.276Z,60.06
2018-07-12T11:09:10.557Z,60.13
2018-07-12T11:11:42.509Z,59.82
2018-07-12T11:14:23.453Z,59.34
2018-07-12T11:16:55.906Z,58.99
2018-07-12T11:19:31.352Z,58.96
2018-07-12T11:22:09.116Z,58.47
2018-07-12T11:24:43.552Z,58.35
2018-07-12T11:27:20.607Z,57.42
2018-07-12T11:29:58.270Z,56.34
2018-07-12T11:32:33.429Z,56.52
2018-07-12T11:35:09.868Z,56.67
2018-07-12T11:37:46.155Z,56.74
2018-07-12T11:40:23.868Z,56.78
2018-07-12T11:43:00.406Z,56.51
2018-07-12T11:45:33.315Z,56.21
2018-07-12T11:48:10.406Z,54.07
2018-07-12T11:50:44.436Z,54.02
2018-07-12T11:53:23.689Z,53.36
2018-07-12T11:55:59.023Z,52.22
2018-07-12T11:58:31.500Z,51.91
2018-07-12T12:01:06.488Z,50.83
2018-07-12T12:03:42.610Z,50.87
2018-07-12T12:19:17.919Z,49.47
2018-07-12T12:21:56.268Z,47.76
2018-07-12T12:24:31.558Z,47.49
2018-07-12T12:27:07.659Z,45.88
2018-07-12T12:29:43.845Z,45.23
2018-07-12T12:32:20.799Z,45.02
2018-07-12T12:35:00.980Z,42.58
2018-07-12T12:37:37.179Z,43.02
2018-07-12T12:40:11.789Z,40.56
2018-07-12T12:42:44.909Z,37.77
2018-07-12T12:45:19.717Z,37.82
2018-07-12T12:47:54.877Z,39.30
2018-07-12T12:50:29.024Z,41.71
2018-07-12T12:53:04.650Z,41.28
2018-07-12T12:55:39.330Z,41.81
2018-07-12T13:21:01.805Z,38.08
2018-07-12T13:23:39.384Z,37.85
2018-07-12T13:26:15.716Z,36.09
2018-07-12T13:28:48.884Z,34.90
2018-07-12T13:31:28.052Z,35.08
2018-07-12T13:34:03.252Z,34.47
2018-07-12T13:39:19.149Z,33.38
2018-07-12T13:41:55.258Z,32.59
2018-07-12T13:44:28.863Z,32.00
2018-07-12T13:47:02.007Z,33.28
2018-07-12T13:49:35.167Z,33.54
2018-07-12T13:52:10.045Z,32.83
2018-07-12T13:54:44.283Z,32.18
2018-07-12T13:57:19.010Z,32.89
2018-07-12T13:59:53.399Z,31.66
2018-07-12T14:02:26.717Z,31.48
2018-07-12T14:04:59.308Z,30.37
2018-07-12T14:07:36.836Z,29.57
2018-07-12T14:10:11.361Z,28.02
2018-07-12T14:12:46.627Z,27.49
2018-07-12T14:15:23.507Z,28.50
2018-07-12T14:18:03.551Z,27.50
2018-07-12T14:20:39.509Z,28.30
2018-07-12T14:36:15.628Z,31.14
2018-07-12T14:38:49.924Z,31.76
2018-07-12T14:41:27.704Z,32.92
2018-07-12T14:44:02.963Z,33.75
2018-07-12T14:46:37.716Z,34.24
2018-07-12T14:49:12.194Z,34.69
2018-07-12T14:51:45.613Z,33.79
2018-07-12T14:54:22.959Z,33.01
2018-07-12T14:56:59.373Z,29.82
2018-07-12T14:59:33.346Z,28.92
2018-07-12T15:02:09.685Z,28.44
2018-07-12T15:04:44.732Z,27.87
2018-07-12T15:07:22.738Z,27.77
2018-07-12T15:09:56.276Z,26.67
2018-07-12T15:12:36.267Z,27.64
2018-07-12T15:15:11.892Z,25.91
2018-07-12T15:17:47.043Z,27.01
2018-07-12T15:20:28.331Z,27.34
2018-07-12T15:23:02.119Z,28.07
2018-07-12T15:25:36.380Z,27.86
2018-07-12T15:28:10.976Z,27.49
2018-07-12T15:30:49.354Z,27.06
2018-07-12T15:33:22.528Z,28.33
2018-07-12T15:35:55.591Z,28.42
2018-07-12T15:38:29.644Z,28.08
2018-07-12T15:41:11.909Z,28.75
2018-07-12T15:43:50.260Z,28.04
2018-07-12T15:49:09.069Z,27.30
2018-07-12T15:51:44.273Z,27.12
2018-07-12T15:54:20.486Z,28.22
2018-07-12T15:56:59.507Z,28.06
2018-07-12T15:59:31.665Z,28.96
2018-07-12T16:15:10.980Z,31.70
2018-07-12T16:17:46.941Z,32.11
2018-07-12T16:20:21.401Z,32.28
2018-07-12T16:22:56.461Z,32.36
2018-07-12T16:25:30.825Z,31.77
2018-07-12T16:28:06.180Z,32.02
2018-07-12T16:30:40.616Z,32.59
2018-07-12T16:33:13.760Z,32.71
2018-07-12T16:35:49.702Z,32.61
2018-07-12T16:38:23.846Z,33.09
2018-07-12T16:41:00.542Z,33.11
2018-07-12T16:43:36.016Z,33.46
2018-07-12T16:46:10.911Z,34.02
2018-07-12T16:48:54.023Z,33.70
2018-07-12T16:51:29.176Z,33.19
2018-07-12T16:54:04.344Z,33.56
2018-07-12T16:56:38.969Z,34.24
2018-07-12T16:59:14.139Z,34.08
2018-07-12T17:01:49.176Z,33.78
2018-07-12T17:04:21.948Z,33.92
2018-07-12T17:06:57.310Z,33.94
2018-07-12T17:09:32.408Z,34.58
2018-07-12T17:12:05.766Z,34.56
2018-07-12T17:14:38.687Z,35.22
2018-07-12T17:17:15.560Z,35.31
2018-07-12T17:19:53.783Z,34.77
2018-07-12T17:22:29.041Z,35.38
2018-07-12T17:25:06.188Z,36.26
2018-07-12T17:40:44.382Z,40.03
2018-07-12T17:43:17.809Z,39.77
2018-07-12T17:45:50.153Z,40.26
2018-07-12T17:48:22.698Z,40.61
2018-07-12T17:50:53.568Z,40.20
2018-07-12T17:53:22.680Z,40.53
2018-07-12T17:55:51.795Z,41.70
2018-07-12T17:58:20.853Z,42.22
2018-07-12T18:00:50.010Z,42.55
2018-07-12T18:03:19.164Z,43.28
2018-07-12T18:05:48.242Z,44.79
2018-07-12T18:08:17.307Z,45.93
2018-07-12T18:10:46.408Z,47.11
2018-07-12T18:13:15.457Z,47.28
2018-07-12T18:15:44.659Z,48.53
2018-07-12T18:18:14.493Z,49.35
2018-07-12T18:20:43.573Z,49.61
2018-07-12T18:23:12.668Z,50.18
2018-07-12T18:25:48.199Z,50.57
2018-07-12T18:28:17.304Z,51.49
2018-07-12T18:30:46.391Z,52.16
2018-07-12T18:33:15.499Z,52.07
2018-07-12T18:35:44.616Z,52.49
2018-07-12T18:38:13.710Z,53.11
2018-07-12T18:40:42.811Z,52.52
2018-07-12T18:43:11.899Z,51.61
2018-07-12T18:45:40.998Z,50.67
2018-07-12T18:48:10.113Z,50.86
2018-07-12T18:50:39.288Z,50.32
2018-07-12T18:53:08.419Z,50.58
2018-07-12T18:55:37.544Z,51.74
2018-07-12T18:58:06.672Z,52.44
2018-07-12T19:00:35.745Z,52.76
2018-07-12T19:03:04.893Z,53.12
2018-07-12T19:05:34.055Z,53.91
2018-07-12T19:08:03.186Z,52.87
2018-07-12T19:10:32.360Z,51.85
2018-07-12T19:13:01.440Z,51.71
2018-07-12T19:15:30.598Z,51.76
2018-07-12T19:17:59.711Z,52.30
2018-07-12T19:20:28.811Z,51.96
2018-07-12T19:22:57.936Z,52.50
2018-07-12T19:25:28.012Z,54.25
2018-07-12T19:27:58.343Z,54.82
2018-07-12T19:30:29.136Z,55.17
2018-07-12T19:32:59.272Z,55.42
2018-07-12T19:35:28.465Z,55.13
2018-07-12T19:37:57.561Z,56.26
2018-07-12T19:40:26.683Z,57.34
2018-07-12T19:42:55.795Z,57.48
2018-07-12T19:45:24.897Z,57.95
2018-07-12T19:47:54.091Z,57.77
2018-07-12T19:50:23.186Z,57.99
2018-07-12T19:52:52.268Z,58.24
2018-07-12T19:55:21.406Z,58.64
2018-07-12T19:57:50.524Z,58.81
2018-07-12T20:00:19.674Z,58.98
2018-07-12T20:02:48.798Z,58.82
2018-07-12T20:05:17.952Z,58.94
2018-07-12T20:07:47.070Z,58.65
2018-07-12T20:10:16.175Z,58.50
2018-07-12T20:12:45.306Z,58.27
2018-07-12T20:15:14.660Z,58.11
2018-07-12T20:17:43.785Z,58.04
2018-07-12T20:20:12.962Z,58.28
2018-07-12T20:22:42.128Z,58.02
2018-07-12T20:25:11.277Z,57.77
2018-07-12T20:27:47.116Z,57.80
2018-07-12T20:30:16.380Z,57.22
2018-07-12T20:32:45.504Z,57.33
2018-07-12T20:35:14.710Z,56.81
2018-07-12T20:37:43.833Z,56.95
2018-07-12T20:40:12.959Z,56.06
2018-07-12T20:42:42.079Z,56.30
2018-07-12T20:45:11.191Z,56.36
2018-07-12T20:47:40.279Z,56.78
2018-07-12T20:50:09.384Z,57.23
2018-07-12T20:52:38.462Z,57.52
2018-07-12T20:55:07.623Z,58.50
2018-07-12T20:57:36.756Z,58.95
2018-07-12T21:00:06.504Z,59.87
2018-07-12T21:02:35.668Z,60.26
2018-07-12T21:05:04.798Z,60.19
2018-07-12T21:07:33.964Z,60.46
2018-07-12T21:10:03.047Z,60.40
2018-07-12T21:12:32.181Z,59.93
2018-07-12T21:15:01.250Z,60.23
2018-07-12T21:17:30.342Z,59.76
2018-07-12T21:19:59.466Z,60.22
2018-07-12T21:22:28.524Z,60.33
2018-07-12T21:24:57.620Z,60.14
2018-07-12T21:27:26.780Z,60.17
2018-07-12T21:29:55.907Z,60.26
2018-07-12T21:32:25.049Z,60.14
2018-07-12T21:34:55.068Z,60.34
2018-07-12T21:37:24.257Z,60.31
2018-07-12T21:39:53.352Z,59.85
2018-07-12T21:42:22.430Z,59.72
2018-07-12T21:44:51.504Z,59.83
2018-07-12T21:47:20.626Z,59.51
2018-07-12T21:49:49.717Z,59.52
2018-07-12T21:52:18.800Z,59.33
2018-07-12T21:54:48.469Z,59.48
2018-07-12T21:57:17.673Z,59.52
2018-07-12T21:59:46.929Z,59.55
2018-07-12T22:02:16.064Z,59.76
2018-07-12T22:04:45.186Z,59.47
2018-07-12T22:08:21.331Z,59.43
2018-07-12T22:10:53.614Z,59.76
2018-07-12T22:13:23.331Z,60.01
2018-07-12T22:15:52.410Z,60.40
2018-07-12T22:18:21.575Z,60.76
2018-07-12T22:20:50.699Z,60.94
2018-07-12T22:23:19.839Z,61.27
2018-07-12T22:25:48.944Z,61.95
2018-07-12T22:28:18.072Z,62.32
2018-07-12T22:30:47.155Z,62.11
2018-07-12T22:33:16.351Z,62.76
2018-07-12T22:35:45.466Z,63.33
2018-07-12T22:38:14.647Z,63.85
2018-07-12T22:40:43.759Z,63.95
2018-07-12T22:43:12.856Z,64.14
2018-07-12T22:45:41.964Z,64.54
2018-07-12T22:48:11.108Z,64.83
2018-07-12T22:50:40.338Z,65.30
2018-07-12T22:53:09.439Z,65.18
2018-07-12T22:55:38.582Z,65.58
2018-07-12T22:58:07.708Z,65.47
2018-07-12T23:00:36.799Z,65.90
2018-07-12T23:03:05.899Z,66.23
2018-07-12T23:05:35.022Z,66.86
2018-07-12T23:08:04.143Z,67.46
2018-07-12T23:10:33.229Z,67.81
2018-07-12T23:13:02.357Z,68.74
2018-07-12T23:15:31.457Z,69.27
2018-07-12T23:18:00.580Z,69.26
2018-07-12T23:20:29.648Z,69.51
2018-07-12T23:22:58.752Z,69.82
2018-07-12T23:25:27.864Z,69.54
2018-07-12T23:27:56.951Z,69.66
2018-07-12T23:30:26.124Z,69.67
2018-07-12T23:32:55.332Z,69.37
2018-07-12T23:35:24.441Z,69.42
2018-07-12T23:37:53.541Z,69.70
2018-07-12T23:40:22.613Z,69.81
2018-07-12T23:42:51.681Z,70.32
2018-07-12T23:45:20.811Z,70.49
2018-07-12T23:47:49.890Z,70.66
2018-07-12T23:50:18.988Z,71.05
2018-07-12T23:52:48.071Z,71.36
2018-07-12T23:55:17.185Z,71.89
2018-07-12T23:57:46.265Z,72.26
